createdAt,value
2022-10-25T00:01:36.799Z,7.30
2022-10-25T00:04:38.478Z,8.63
2022-10-25T00:07:40.728Z,8.63
2022-10-25T00:10:42.327Z,10.57
2022-10-25T00:13:43.958Z,7.80
2022-10-25T00:16:45.537Z,9.80
2022-10-25T00:19:47.258Z,8.25
2022-10-25T00:22:49.051Z,10.30
2022-10-25T00:26:01.082Z,8.82
2022-10-25T00:29:02.677Z,8.75
2022-10-25T00:32:04.261Z,6.90
2022-10-25T00:35:06.556Z,8.47
2022-10-25T00:38:08.198Z,9.88
2022-10-25T00:41:10.566Z,9.25
2022-10-25T00:44:40.219Z,8.00
2022-10-25T00:47:56.338Z,8.50
2022-10-25T00:50:58.405Z,6.68
2022-10-25T00:54:01.394Z,8.52
2022-10-25T00:57:14.536Z,8.35
2022-10-25T01:00:16.382Z,7.13
2022-10-25T01:03:22.826Z,6.30
2022-10-25T01:06:34.443Z,10.82
2022-10-25T01:09:38.175Z,6.90
2022-10-25T01:12:39.825Z,7.38
2022-10-25T01:15:55.911Z,6.55
2022-10-25T01:19:04.892Z,8.13
2022-10-25T01:22:16.886Z,7.27
2022-10-25T01:25:40.633Z,7.57
2022-10-25T01:28:51.295Z,7.30
2022-10-25T01:31:56.499Z,6.60
2022-10-25T01:35:19.830Z,8.85
2022-10-25T01:38:43.055Z,9.45
2022-10-25T01:41:52.154Z,6.22
2022-10-25T01:45:12.855Z,6.60
2022-10-25T01:48:19.586Z,7.57
2022-10-25T01:51:21.176Z,8.02
2022-10-25T01:54:25.696Z,7.43
2022-10-25T01:57:30.192Z,7.35
2022-10-25T02:00:38.996Z,7.28
2022-10-25T02:03:54.321Z,8.77
2022-10-25T02:07:02.439Z,7.13
2022-10-25T02:13:32.870Z,6.53
2022-10-25T02:16:53.014Z,7.10
2022-10-25T02:19:59.319Z,7.93
2022-10-25T02:23:04.462Z,9.23
2022-10-25T02:26:09.138Z,7.22
2022-10-25T02:29:13.650Z,7.30
2022-10-25T02:32:15.350Z,6.88
2022-10-25T02:35:18.951Z,6.90
2022-10-25T02:38:20.599Z,6.72
2022-10-25T02:41:22.869Z,7.63
2022-10-25T02:44:24.471Z,8.07
2022-10-25T02:47:26.369Z,5.80
2022-10-25T02:50:27.975Z,5.90
2022-10-25T02:53:29.671Z,6.72
2022-10-25T02:56:31.226Z,7.97
2022-10-25T02:59:32.868Z,6.80
2022-10-25T03:02:34.436Z,6.53
2022-10-25T03:05:36.000Z,6.10
2022-10-25T03:08:38.982Z,7.38
2022-10-25T03:11:40.534Z,8.20
2022-10-25T03:14:42.098Z,6.78
2022-10-25T03:17:43.763Z,7.53
2022-10-25T03:20:45.585Z,6.43
2022-10-25T03:23:47.090Z,10.60
2022-10-25T03:26:48.772Z,7.68
2022-10-25T03:29:50.291Z,6.03
2022-10-25T03:32:52.098Z,6.00
2022-10-25T03:35:54.504Z,7.35
2022-10-25T03:38:56.079Z,6.45
2022-10-25T03:41:57.666Z,5.72
2022-10-25T03:44:59.242Z,8.48
2022-10-25T03:48:00.840Z,5.97
2022-10-25T03:51:02.564Z,6.30
2022-10-25T03:54:04.400Z,6.70
2022-10-25T03:57:06.006Z,5.88
2022-10-25T04:00:08.383Z,7.00
2022-10-25T04:03:15.921Z,5.97
2022-10-25T04:06:17.493Z,9.05
2022-10-25T04:09:19.249Z,5.70
2022-10-25T04:12:20.838Z,6.38
2022-10-25T04:15:24.292Z,5.53
2022-10-25T04:18:25.817Z,5.68
2022-10-25T04:21:27.621Z,6.65
2022-10-25T04:24:29.903Z,6.60
2022-10-25T04:27:31.418Z,8.35
2022-10-25T04:30:36.532Z,6.57
2022-10-25T04:33:41.537Z,6.32
2022-10-25T04:36:44.557Z,7.60
2022-10-25T04:39:46.245Z,6.25
2022-10-25T04:42:48.215Z,5.68
2022-10-25T04:45:50.228Z,6.70
2022-10-25T04:48:51.715Z,7.97
2022-10-25T04:51:53.430Z,5.80
2022-10-25T04:54:54.923Z,6.55
2022-10-25T04:57:56.428Z,5.85
2022-10-25T05:01:03.779Z,6.07
2022-10-25T05:04:05.328Z,8.13
2022-10-25T05:07:06.882Z,5.83
2022-10-25T05:10:08.704Z,8.25
2022-10-25T05:13:10.319Z,7.32
2022-10-25T05:16:26.436Z,5.40
2022-10-25T05:19:27.987Z,7.80
2022-10-25T05:22:29.642Z,6.03
2022-10-25T05:25:31.173Z,10.57
2022-10-25T05:28:33.896Z,6.32
2022-10-25T05:31:35.515Z,5.90
2022-10-25T05:34:37.040Z,7.03
2022-10-25T05:37:38.587Z,7.03
2022-10-25T05:40:40.356Z,7.50
2022-10-25T05:43:42.609Z,7.88
2022-10-25T05:46:45.062Z,6.53
2022-10-25T05:49:46.606Z,9.80
2022-10-25T05:52:48.397Z,11.80
2022-10-25T05:55:50.167Z,13.55
2022-10-25T05:58:52.332Z,12.65
2022-10-25T06:01:54.016Z,13.35
2022-10-25T06:04:55.648Z,11.77
2022-10-25T06:07:57.187Z,12.67
2022-10-25T06:11:10.112Z,9.63
2022-10-25T06:14:11.770Z,9.15
2022-10-25T06:17:13.903Z,8.37
2022-10-25T06:20:15.483Z,8.23
2022-10-25T06:23:16.985Z,7.65
2022-10-25T06:26:21.478Z,7.63
2022-10-25T06:29:22.994Z,6.63
2022-10-25T06:32:24.500Z,7.93
2022-10-25T06:35:26.285Z,11.40
2022-10-25T06:38:29.011Z,8.67
2022-10-25T06:41:31.521Z,7.57
2022-10-25T06:44:33.165Z,7.55
2022-10-25T06:47:34.677Z,10.17
2022-10-25T06:50:36.293Z,10.40
2022-10-25T06:53:38.493Z,8.68
2022-10-25T06:56:40.056Z,8.32
2022-10-25T06:59:41.625Z,7.18
2022-10-25T07:02:43.170Z,7.15
2022-10-25T07:05:44.723Z,7.15
2022-10-25T07:08:47.212Z,12.40
2022-10-25T07:11:48.758Z,10.13
2022-10-25T07:14:50.301Z,7.88
2022-10-25T07:17:54.960Z,9.10
2022-10-25T07:20:59.553Z,6.22
2022-10-25T07:24:01.109Z,6.60
2022-10-25T07:27:02.675Z,8.52
2022-10-25T07:30:04.577Z,10.27
2022-10-25T07:33:06.117Z,7.60
2022-10-25T07:36:11.945Z,7.43
2022-10-25T07:39:13.745Z,9.57
2022-10-25T07:42:15.257Z,7.13
2022-10-25T07:45:20.329Z,7.88
2022-10-25T07:48:25.137Z,8.43
2022-10-25T07:51:26.706Z,9.60
2022-10-25T07:54:28.244Z,7.72
2022-10-25T07:57:29.822Z,8.57
2022-10-25T08:00:31.938Z,9.20
2022-10-25T08:03:33.855Z,7.43
2022-10-25T08:06:36.196Z,7.05
2022-10-25T08:09:38.733Z,10.85
2022-10-25T08:12:40.442Z,6.80
2022-10-25T08:15:41.994Z,8.43
2022-10-25T08:18:44.072Z,7.47
2022-10-25T08:21:46.402Z,6.70
2022-10-25T08:24:47.953Z,6.20
2022-10-25T08:27:49.703Z,5.40
2022-10-25T08:30:53.725Z,9.63
2022-10-25T08:33:55.287Z,6.57
2022-10-25T08:36:56.788Z,6.50
2022-10-25T08:39:58.368Z,7.30
2022-10-25T08:43:18.928Z,5.22
2022-10-25T08:46:26.141Z,6.22
2022-10-25T08:49:50.801Z,4.00
2022-10-25T08:52:56.085Z,4.75
2022-10-25T08:56:15.591Z,6.35
2022-10-25T08:59:27.085Z,5.32
2022-10-25T09:02:58.439Z,4.87
2022-10-25T09:06:29.318Z,6.18
2022-10-25T09:09:39.630Z,5.05
2022-10-25T09:13:00.805Z,6.40
2022-10-25T09:16:18.483Z,5.88
2022-10-25T09:19:38.872Z,4.40
2022-10-25T09:22:47.083Z,4.57
2022-10-25T09:25:54.367Z,5.35
2022-10-25T09:28:55.833Z,5.32
2022-10-25T09:31:59.990Z,5.63
2022-10-25T09:35:03.732Z,4.78
2022-10-25T09:38:19.169Z,4.68
2022-10-25T09:41:35.293Z,4.60
2022-10-25T09:44:41.817Z,4.73
2022-10-25T09:47:59.626Z,5.43
2022-10-25T09:51:11.099Z,6.05
2022-10-25T09:54:29.090Z,4.63
2022-10-25T09:57:30.654Z,5.30
2022-10-25T10:00:37.106Z,6.35
2022-10-25T10:03:39.003Z,4.93
2022-10-25T10:06:40.853Z,6.75
2022-10-25T10:09:46.033Z,5.70
2022-10-25T10:16:04.602Z,6.63
2022-10-25T10:19:18.395Z,4.75
2022-10-25T10:22:19.946Z,5.43
2022-10-25T10:25:25.682Z,4.93
2022-10-25T10:28:27.318Z,6.75
2022-10-25T10:31:36.324Z,5.50
2022-10-25T10:34:50.920Z,6.60
2022-10-25T10:37:52.472Z,5.53
2022-10-25T10:41:13.951Z,5.77
2022-10-25T10:44:15.501Z,5.35
2022-10-25T10:47:21.239Z,5.38
2022-10-25T10:50:22.877Z,4.40
2022-10-25T10:53:32.936Z,5.15
2022-10-25T10:56:34.561Z,4.07
2022-10-25T10:59:53.052Z,6.03
2022-10-25T11:06:01.383Z,4.80
2022-10-25T11:09:19.380Z,3.90
2022-10-25T11:12:22.193Z,3.40
2022-10-25T11:15:23.808Z,5.50
2022-10-25T11:18:39.324Z,3.88
2022-10-25T11:21:55.806Z,4.63
2022-10-25T11:25:12.645Z,4.13
2022-10-25T11:28:20.126Z,5.22
2022-10-25T11:31:27.610Z,3.15
2022-10-25T11:34:53.815Z,4.53
2022-10-25T11:38:21.467Z,4.97
2022-10-25T11:41:52.154Z,4.23
2022-10-25T11:45:32.969Z,3.90
2022-10-25T11:48:44.617Z,2.60
2022-10-25T11:52:12.218Z,4.13
2022-10-25T11:55:32.294Z,5.22
2022-10-25T11:59:06.882Z,5.03
2022-10-25T12:02:34.475Z,3.15
2022-10-25T12:05:52.713Z,4.47
2022-10-25T12:08:57.131Z,4.38
2022-10-25T12:12:05.237Z,4.95
2022-10-25T12:15:13.857Z,4.13
2022-10-25T12:18:38.101Z,4.57
2022-10-25T12:21:49.392Z,4.80
2022-10-25T12:25:08.440Z,4.43
2022-10-25T12:28:47.535Z,2.63
2022-10-25T12:31:56.706Z,5.17
2022-10-25T12:35:01.535Z,3.85
2022-10-25T12:38:11.984Z,6.88
2022-10-25T12:41:21.021Z,4.35
2022-10-25T12:44:44.999Z,3.10
2022-10-25T12:47:59.560Z,3.10
2022-10-25T12:51:28.266Z,3.35
2022-10-25T12:55:20.799Z,3.00
2022-10-25T12:58:40.989Z,4.22
2022-10-25T13:02:00.769Z,3.92
2022-10-25T13:05:20.811Z,5.23
2022-10-25T13:08:24.464Z,3.42
2022-10-25T13:11:59.607Z,4.63
2022-10-25T13:15:03.072Z,5.50
2022-10-25T13:18:07.153Z,2.22
2022-10-25T13:21:14.865Z,4.47
2022-10-25T13:24:45.758Z,3.42
2022-10-25T13:28:26.043Z,4.53
2022-10-25T13:31:36.475Z,4.60
2022-10-25T13:34:38.049Z,2.85
2022-10-25T13:37:41.568Z,3.63
2022-10-25T13:40:43.225Z,2.25
2022-10-25T13:44:02.857Z,3.53
2022-10-25T13:47:05.544Z,3.30
2022-10-25T13:50:28.976Z,2.50
2022-10-25T13:53:41.225Z,2.10
2022-10-25T13:56:53.577Z,4.88
2022-10-25T13:59:55.184Z,2.85
2022-10-25T14:03:02.462Z,6.05
2022-10-25T14:06:09.891Z,3.20
2022-10-25T14:09:33.953Z,3.30
2022-10-25T14:12:36.272Z,3.50
2022-10-25T14:15:45.993Z,4.18
2022-10-25T14:18:48.764Z,3.92
2022-10-25T14:21:53.383Z,3.65
2022-10-25T14:24:56.167Z,3.40
2022-10-25T14:28:05.063Z,2.90
2022-10-25T14:31:08.092Z,4.25
2022-10-25T14:34:19.752Z,3.28
2022-10-25T14:37:21.297Z,4.70
2022-10-25T14:40:25.387Z,6.20
2022-10-25T14:43:29.023Z,4.20
2022-10-25T14:46:30.742Z,3.05
2022-10-25T14:49:32.341Z,3.72
2022-10-25T14:52:35.858Z,4.38
2022-10-25T14:55:37.807Z,4.33
2022-10-25T14:58:42.466Z,3.03
2022-10-25T15:01:55.855Z,3.72
2022-10-25T15:04:59.867Z,6.05
2022-10-25T15:08:01.621Z,3.10
2022-10-25T15:11:09.519Z,2.53
2022-10-25T15:14:20.386Z,3.63
2022-10-25T15:17:22.222Z,3.45
2022-10-25T15:20:32.816Z,9.60
2022-10-25T15:23:35.366Z,4.53
2022-10-25T15:26:38.304Z,2.47
2022-10-25T15:29:40.634Z,3.70
2022-10-25T15:32:42.240Z,3.15
2022-10-25T15:35:59.492Z,2.65
2022-10-25T15:39:10.405Z,3.17
2022-10-25T15:42:15.603Z,3.73
2022-10-25T15:45:17.266Z,2.75
2022-10-25T15:48:21.167Z,5.57
2022-10-25T15:51:25.139Z,4.82
2022-10-25T15:54:29.169Z,5.43
2022-10-25T15:57:30.710Z,6.03
2022-10-25T16:00:32.673Z,4.85
2022-10-25T16:03:34.255Z,6.45
2022-10-25T16:06:35.774Z,8.13
2022-10-25T16:09:37.340Z,5.07
2022-10-25T16:12:38.997Z,5.63
2022-10-25T16:15:40.512Z,6.95
2022-10-25T16:18:42.084Z,19.42
2022-10-25T16:21:45.459Z,33.33
2022-10-25T16:24:47.028Z,32.13
2022-10-25T16:27:49.033Z,21.27
2022-10-25T16:30:50.601Z,20.05
2022-10-25T16:33:52.142Z,21.38
2022-10-25T16:36:53.981Z,18.42
2022-10-25T16:39:55.651Z,25.53
2022-10-25T16:42:58.366Z,19.88
2022-10-25T16:45:59.989Z,23.13
2022-10-25T16:49:02.301Z,27.02
2022-10-25T16:52:06.056Z,33.35
2022-10-25T16:55:08.117Z,49.30
2022-10-25T16:58:10.140Z,57.63
2022-10-25T17:01:34.268Z,47.58
2022-10-25T17:04:36.420Z,28.75
2022-10-25T17:10:45.313Z,16.42
2022-10-25T17:13:47.714Z,10.18
2022-10-25T17:16:49.207Z,8.57
2022-10-25T17:19:50.769Z,8.33
2022-10-25T17:22:52.964Z,12.73
2022-10-25T17:26:01.710Z,11.68
2022-10-25T17:29:04.082Z,13.43
2022-10-25T17:32:05.795Z,13.40
2022-10-25T17:35:07.527Z,13.95
2022-10-25T17:38:10.251Z,9.02
2022-10-25T17:41:13.485Z,10.57
2022-10-25T17:44:14.972Z,9.77
2022-10-25T17:47:16.492Z,14.50
2022-10-25T17:50:20.159Z,12.85
2022-10-25T17:53:21.658Z,9.80
2022-10-25T17:56:25.349Z,12.20
2022-10-25T17:59:30.353Z,10.55
2022-10-25T18:02:31.902Z,15.20
2022-10-25T18:05:33.509Z,14.20
2022-10-25T18:13:54.241Z,20.27
2022-10-25T18:16:55.740Z,15.73
2022-10-25T18:20:02.683Z,14.10
2022-10-25T18:23:08.495Z,12.00
2022-10-25T18:26:12.057Z,12.85
2022-10-25T18:29:13.552Z,11.60
2022-10-25T18:32:15.264Z,10.38
2022-10-25T18:35:16.871Z,11.13
2022-10-25T18:38:18.387Z,13.48
2022-10-25T18:41:30.978Z,12.60
2022-10-25T18:44:32.521Z,13.93
2022-10-25T18:47:34.088Z,14.70
2022-10-25T18:50:39.171Z,14.60
2022-10-25T18:53:43.382Z,12.25
2022-10-25T18:56:44.890Z,12.40
2022-10-25T18:59:46.589Z,14.40
2022-10-25T19:02:52.585Z,12.35
2022-10-25T19:05:54.227Z,12.70
2022-10-25T19:08:56.035Z,12.25
2022-10-25T19:11:57.564Z,10.93
2022-10-25T19:14:59.103Z,12.32
2022-10-25T19:18:00.665Z,11.18
2022-10-25T19:21:05.228Z,10.87
2022-10-25T19:24:07.209Z,10.15
2022-10-25T19:27:08.777Z,11.52
2022-10-25T19:30:10.894Z,10.20
2022-10-25T19:33:12.425Z,9.35
2022-10-25T19:36:14.761Z,11.90
2022-10-25T19:39:16.375Z,12.55
2022-10-25T19:42:17.920Z,10.20
2022-10-25T19:45:19.626Z,9.45
2022-10-25T19:48:21.138Z,8.82
2022-10-25T19:51:22.739Z,10.10
2022-10-25T19:54:24.437Z,7.53
2022-10-25T19:57:25.929Z,8.73
2022-10-25T20:00:27.465Z,10.15
2022-10-25T20:03:29.144Z,11.37
2022-10-25T20:06:34.252Z,9.35
2022-10-25T20:09:35.826Z,9.77
2022-10-25T20:12:37.480Z,8.80
2022-10-25T20:15:47.482Z,11.90
2022-10-25T20:18:49.087Z,8.63
2022-10-25T20:21:50.750Z,9.32
2022-10-25T20:24:52.302Z,8.10
2022-10-25T20:27:53.911Z,10.50
2022-10-25T20:31:01.966Z,10.25
2022-10-25T20:34:03.958Z,11.90
2022-10-25T20:37:06.113Z,12.40
2022-10-25T20:40:08.127Z,12.02
2022-10-25T20:43:09.627Z,11.98
2022-10-25T20:46:11.201Z,12.43
2022-10-25T20:49:12.793Z,14.05
2022-10-25T20:52:14.317Z,12.88
2022-10-25T20:55:16.753Z,11.13
2022-10-25T20:58:20.122Z,10.70
2022-10-25T21:01:21.765Z,14.30
2022-10-25T21:04:30.688Z,14.50
2022-10-25T21:07:43.743Z,15.18
2022-10-25T21:10:55.716Z,13.80
2022-10-25T21:13:57.236Z,10.82
2022-10-25T21:16:58.726Z,12.30
2022-10-25T21:20:00.281Z,11.73
2022-10-25T21:23:01.806Z,11.27
2022-10-25T21:26:06.640Z,13.77
2022-10-25T21:29:08.172Z,14.60
2022-10-25T21:32:09.785Z,11.03
2022-10-25T21:35:11.432Z,14.32
2022-10-25T21:38:12.943Z,11.52
2022-10-25T21:41:17.563Z,11.13
2022-10-25T21:44:19.530Z,10.70
2022-10-25T21:47:21.025Z,13.52
2022-10-25T21:50:22.576Z,11.75
2022-10-25T21:53:24.338Z,9.70
2022-10-25T21:56:31.283Z,10.90
2022-10-25T21:59:33.309Z,10.15
2022-10-25T22:02:35.003Z,11.40
2022-10-25T22:05:42.441Z,10.98
2022-10-25T22:08:44.275Z,11.15
2022-10-25T22:11:49.246Z,11.70
2022-10-25T22:14:50.757Z,12.35
2022-10-25T22:17:52.294Z,9.27
2022-10-25T22:20:59.857Z,10.45
2022-10-25T22:24:01.934Z,12.32
2022-10-25T22:27:03.473Z,12.30
2022-10-25T22:30:05.368Z,12.40
2022-10-25T22:33:06.890Z,12.10
2022-10-25T22:36:14.360Z,10.73
2022-10-25T22:39:16.587Z,12.20
2022-10-25T22:42:18.142Z,12.17
2022-10-25T22:45:19.668Z,13.65
2022-10-25T22:48:21.998Z,12.50
2022-10-25T22:51:25.708Z,9.90
2022-10-25T22:54:27.275Z,12.80
2022-10-25T22:57:32.007Z,11.45
2022-10-25T23:00:33.562Z,11.35
2022-10-25T23:03:41.728Z,11.93
2022-10-25T23:06:43.293Z,13.27
2022-10-25T23:09:44.809Z,13.25
2022-10-25T23:12:49.364Z,13.50
2022-10-25T23:15:51.308Z,12.57
2022-10-25T23:18:53.092Z,12.00
2022-10-25T23:21:54.588Z,11.65
2022-10-25T23:24:56.086Z,12.63
2022-10-25T23:27:57.605Z,11.75
2022-10-25T23:31:10.351Z,11.05
2022-10-25T23:34:11.932Z,10.63
2022-10-25T23:37:13.649Z,14.07
2022-10-25T23:40:15.221Z,11.13
2022-10-25T23:43:16.752Z,11.38
2022-10-25T23:46:18.424Z,12.80
2022-10-25T23:49:20.005Z,9.32
2022-10-25T23:52:21.519Z,11.25
2022-10-25T23:55:23.070Z,11.95
2022-10-25T23:58:24.963Z,11.67
